Elwood, Indiana
Current Conditions -  °F | °C
As of 10:35 AM on Saturday 25 Oct 2014 (Local Time) from KMZZ Reporting Station
Haze Haze  
Wind Chill: 59°   Ceiling: Unl
Heat Index: 59°   Visibility: 5mi
Dew Point: 52°   Wind: 12mph
Humidity: 78%   Direction: 260°W
Pressure: 29.96"   Gusts: NA
Location:  40.28°N, 85.82°W
Report Text: KMZZ 251435Z AUTO 26010KT 5SM HZ CLR 15/11 A2996 RMK AO2 T01510112
Loading
Personal Weather Stations






























Interactive Weather Map New forecast layout! Learn more

10-Day Weather Forecast

Advertisements
Track Severe Weather on mobile